Terminal Aerodrome Forecast
Issued by NWS Jackson, MS

Home | Current Version | Previous Version | Text Only | Print | Product List | Glossary On
Versions: 1 2 3 4 5 6 7 8 9 10 11
000
FTUS44 KJAN 032320
TAFMEI
TAF
KMEI 032320Z 0400/0424 18004KT P6SM FEW050
     FM041000 VRB02KT 5SM BR FEW010
     FM041400 14008KT P6SM SCT050=

USA.gov is the U.S. government's official web portal to all federal, state and local government web resources and services.